sensor_id;sensor_type;location;lat;lon;timestamp;pressure;altitude;pressure_sealevel;temperature;humidity
48041;BME280;33815;48.386;11.738;2023-03-26T00:01:03;96064.94;;;5.36;100.00
48041;BME280;33815;48.386;11.738;2023-03-26T00:03:30;96064.81;;;5.38;100.00
48041;BME280;33815;48.386;11.738;2023-03-26T00:06:03;96059.63;;;5.38;100.00
48041;BME280;33815;48.386;11.738;2023-03-26T00:08:30;96050.00;;;5.49;100.00
48041;BME280;33815;48.386;11.738;2023-03-26T00:10:55;96053.81;;;5.45;100.00
48041;BME280;33815;48.386;11.738;2023-03-26T00:13:20;96051.94;;;5.57;100.00
48041;BME280;33815;48.386;11.738;2023-03-26T00:15:46;96049.38;;;5.67;100.00
48041;BME280;33815;48.386;11.738;2023-03-26T00:18:11;96042.00;;;5.62;100.00
48041;BME280;33815;48.386;11.738;2023-03-26T00:20:36;96039.41;;;5.62;100.00
48041;BME280;33815;48.386;11.738;2023-03-26T00:23:02;96036.00;;;5.52;100.00
48041;BME280;33815;48.386;11.738;2023-03-26T00:25:28;96038.28;;;5.45;100.00
48041;BME280;33815;48.386;11.738;2023-03-26T00:27:53;96060.31;;;5.40;100.00
48041;BME280;33815;48.386;11.738;2023-03-26T00:30:18;96057.28;;;5.25;100.00
48041;BME280;33815;48.386;11.738;2023-03-26T00:32:44;96051.63;;;5.10;100.00
48041;BME280;33815;48.386;11.738;2023-03-26T00:35:10;96055.94;;;5.00;100.00
48041;BME280;33815;48.386;11.738;2023-03-26T00:37:37;96050.97;;;4.87;100.00
48041;BME280;33815;48.386;11.738;2023-03-26T00:40:02;96047.72;;;4.85;100.00
48041;BME280;33815;48.386;11.738;2023-03-26T00:42:32;96051.69;;;4.68;100.00
48041;BME280;33815;48.386;11.738;2023-03-26T00:44:58;96052.06;;;4.63;100.00
48041;BME280;33815;48.386;11.738;2023-03-26T00:47:26;96029.97;;;4.49;100.00
48041;BME280;33815;48.386;11.738;2023-03-26T00:49:52;96046.06;;;4.62;100.00
48041;BME280;33815;48.386;11.738;2023-03-26T00:52:18;96044.00;;;4.56;100.00
48041;BME280;33815;48.386;11.738;2023-03-26T00:54:47;96045.34;;;4.51;100.00
48041;BME280;33815;48.386;11.738;2023-03-26T00:57:15;96044.75;;;4.47;100.00
48041;BME280;33815;48.386;11.738;2023-03-26T00:59:41;96044.28;;;4.53;100.00
48041;BME280;33815;48.386;11.738;2023-03-26T01:02:09;96044.75;;;4.68;100.00
48041;BME280;33815;48.386;11.738;2023-03-26T01:04:35;96037.31;;;4.75;100.00
48041;BME280;33815;48.386;11.738;2023-03-26T01:07:10;96038.50;;;4.92;100.00
48041;BME280;33815;48.386;11.738;2023-03-26T01:09:39;96016.03;;;4.83;100.00
48041;BME280;33815;48.386;11.738;2023-03-26T01:12:13;96002.16;;;4.84;100.00
48041;BME280;33815;48.386;11.738;2023-03-26T01:14:43;96031.63;;;5.02;100.00
48041;BME280;33815;48.386;11.738;2023-03-26T01:17:08;96025.28;;;5.16;100.00
48041;BME280;33815;48.386;11.738;2023-03-26T01:20:00;96032.47;;;5.12;100.00
48041;BME280;33815;48.386;11.738;2023-03-26T01:22:37;96026.47;;;5.12;100.00
48041;BME280;33815;48.386;11.738;2023-03-26T01:25:05;96025.44;;;5.24;100.00
48041;BME280;33815;48.386;11.738;2023-03-26T01:27:41;96025.13;;;5.08;100.00
48041;BME280;33815;48.386;11.738;2023-03-26T01:30:33;96026.09;;;5.17;100.00
48041;BME280;33815;48.386;11.738;2023-03-26T01:33:08;95995.56;;;5.01;100.00
48041;BME280;33815;48.386;11.738;2023-03-26T01:40:45;96018.78;;;5.31;100.00
48041;BME280;33815;48.386;11.738;2023-03-26T01:46:01;96026.97;;;5.37;100.00
48041;BME280;33815;48.386;11.738;2023-03-26T01:48:34;96024.94;;;5.30;100.00
48041;BME280;33815;48.386;11.738;2023-03-26T01:51:01;96027.34;;;5.22;100.00
48041;BME280;33815;48.386;11.738;2023-03-26T01:53:26;96019.16;;;5.17;100.00
48041;BME280;33815;48.386;11.738;2023-03-26T01:56:05;96021.44;;;5.10;100.00
48041;BME280;33815;48.386;11.738;2023-03-26T01:58:51;96014.34;;;5.03;100.00
48041;BME280;33815;48.386;11.738;2023-03-26T02:01:27;96004.38;;;4.88;100.00
48041;BME280;33815;48.386;11.738;2023-03-26T02:04:19;96006.34;;;4.75;100.00
48041;BME280;33815;48.386;11.738;2023-03-26T02:06:51;96001.00;;;4.67;100.00
48041;BME280;33815;48.386;11.738;2023-03-26T02:09:21;96009.22;;;4.51;100.00
48041;BME280;33815;48.386;11.738;2023-03-26T02:11:49;95997.69;;;4.34;100.00
48041;BME280;33815;48.386;11.738;2023-03-26T02:14:15;95974.94;;;4.06;100.00
48041;BME280;33815;48.386;11.738;2023-03-26T02:16:41;96009.13;;;4.20;100.00
48041;BME280;33815;48.386;11.738;2023-03-26T02:19:10;95970.19;;;4.02;100.00
48041;BME280;33815;48.386;11.738;2023-03-26T02:21:40;95945.81;;;3.73;100.00
48041;BME280;33815;48.386;11.738;2023-03-26T02:24:05;95991.88;;;4.20;100.00
48041;BME280;33815;48.386;11.738;2023-03-26T02:26:33;95989.63;;;4.06;100.00
48041;BME280;33815;48.386;11.738;2023-03-26T02:28:59;95997.28;;;3.96;100.00
48041;BME280;33815;48.386;11.738;2023-03-26T02:31:26;95983.25;;;3.89;100.00
48041;BME280;33815;48.386;11.738;2023-03-26T02:33:54;95983.97;;;3.80;100.00
48041;BME280;33815;48.386;11.738;2023-03-26T02:36:21;95982.25;;;3.69;100.00
48041;BME280;33815;48.386;11.738;2023-03-26T02:38:52;95982.16;;;3.70;100.00
48041;BME280;33815;48.386;11.738;2023-03-26T02:41:18;95979.91;;;3.66;100.00
48041;BME280;33815;48.386;11.738;2023-03-26T02:43:43;95970.47;;;3.55;100.00
48041;BME280;33815;48.386;11.738;2023-03-26T02:46:08;95967.88;;;3.55;100.00
48041;BME280;33815;48.386;11.738;2023-03-26T02:48:34;95977.50;;;3.53;100.00
48041;BME280;33815;48.386;11.738;2023-03-26T02:51:00;95950.97;;;3.41;100.00
48041;BME280;33815;48.386;11.738;2023-03-26T02:53:25;95973.25;;;3.63;100.00
48041;BME280;33815;48.386;11.738;2023-03-26T02:55:56;95970.31;;;3.68;100.00
48041;BME280;33815;48.386;11.738;2023-03-26T02:58:22;95969.69;;;3.75;100.00
48041;BME280;33815;48.386;11.738;2023-03-26T03:00:50;95963.47;;;3.78;100.00
48041;BME280;33815;48.386;11.738;2023-03-26T03:03:22;95965.81;;;3.81;100.00
48041;BME280;33815;48.386;11.738;2023-03-26T03:05:49;95967.44;;;3.82;100.00
48041;BME280;33815;48.386;11.738;2023-03-26T03:08:16;95935.63;;;3.72;100.00
48041;BME280;33815;48.386;11.738;2023-03-26T03:10:42;95968.78;;;3.98;100.00
48041;BME280;33815;48.386;11.738;2023-03-26T03:13:07;95957.97;;;4.04;100.00
48041;BME280;33815;48.386;11.738;2023-03-26T03:15:33;95956.91;;;4.06;100.00
48041;BME280;33815;48.386;11.738;2023-03-26T03:17:59;95952.81;;;4.04;100.00
48041;BME280;33815;48.386;11.738;2023-03-26T03:20:24;95952.13;;;4.02;100.00
48041;BME280;33815;48.386;11.738;2023-03-26T03:22:49;95944.44;;;3.90;100.00
48041;BME280;33815;48.386;11.738;2023-03-26T03:25:14;95943.75;;;3.88;100.00
48041;BME280;33815;48.386;11.738;2023-03-26T03:27:42;95941.22;;;3.77;100.00
48041;BME280;33815;48.386;11.738;2023-03-26T03:30:10;95931.66;;;3.68;100.00
48041;BME280;33815;48.386;11.738;2023-03-26T03:32:37;95931.72;;;3.56;100.00
48041;BME280;33815;48.386;11.738;2023-03-26T03:35:02;95928.88;;;3.59;100.00
48041;BME280;33815;48.386;11.738;2023-03-26T03:37:28;95919.06;;;3.53;100.00
48041;BME280;33815;48.386;11.738;2023-03-26T03:39:53;95919.81;;;3.44;100.00
48041;BME280;33815;48.386;11.738;2023-03-26T03:42:18;95914.44;;;3.36;100.00
48041;BME280;33815;48.386;11.738;2023-03-26T03:44:44;95905.81;;;3.25;100.00
48041;BME280;33815;48.386;11.738;2023-03-26T03:47:09;95903.03;;;3.17;100.00
48041;BME280;33815;48.386;11.738;2023-03-26T03:49:38;95902.56;;;3.12;100.00
48041;BME280;33815;48.386;11.738;2023-03-26T03:52:04;95908.41;;;3.03;100.00
48041;BME280;33815;48.386;11.738;2023-03-26T03:54:30;95904.00;;;2.94;100.00
48041;BME280;33815;48.386;11.738;2023-03-26T03:56:55;95902.84;;;2.86;100.00
48041;BME280;33815;48.386;11.738;2023-03-26T03:59:20;95908.13;;;2.85;100.00
48041;BME280;33815;48.386;11.738;2023-03-26T04:01:45;95908.81;;;2.76;100.00
48041;BME280;33815;48.386;11.738;2023-03-26T04:04:12;95912.44;;;2.73;100.00
48041;BME280;33815;48.386;11.738;2023-03-26T04:06:37;95908.94;;;2.74;100.00
48041;BME280;33815;48.386;11.738;2023-03-26T04:09:03;95907.28;;;2.73;100.00
48041;BME280;33815;48.386;11.738;2023-03-26T04:11:28;95900.50;;;2.72;100.00
48041;BME280;33815;48.386;11.738;2023-03-26T04:13:54;95908.94;;;2.74;100.00
48041;BME280;33815;48.386;11.738;2023-03-26T04:16:19;95906.63;;;2.71;100.00
48041;BME280;33815;48.386;11.738;2023-03-26T04:18:45;95899.81;;;2.70;100.00
48041;BME280;33815;48.386;11.738;2023-03-26T04:21:10;95898.41;;;2.66;100.00
48041;BME280;33815;48.386;11.738;2023-03-26T04:23:37;95879.81;;;2.51;100.00
48041;BME280;33815;48.386;11.738;2023-03-26T04:26:04;95905.34;;;2.65;100.00
48041;BME280;33815;48.386;11.738;2023-03-26T04:28:33;95900.31;;;2.64;100.00
48041;BME280;33815;48.386;11.738;2023-03-26T04:31:00;95901.91;;;2.65;100.00
48041;BME280;33815;48.386;11.738;2023-03-26T04:33:32;95883.34;;;2.50;100.00
48041;BME280;33815;48.386;11.738;2023-03-26T04:35:59;95880.41;;;2.54;100.00
48041;BME280;33815;48.386;11.738;2023-03-26T04:38:28;95878.28;;;2.48;100.00
48041;BME280;33815;48.386;11.738;2023-03-26T04:40:54;95882.06;;;2.44;100.00
48041;BME280;33815;48.386;11.738;2023-03-26T04:43:24;95879.72;;;2.41;100.00
48041;BME280;33815;48.386;11.738;2023-03-26T04:45:51;95886.13;;;2.47;100.00
48041;BME280;33815;48.386;11.738;2023-03-26T04:48:17;95884.75;;;2.54;100.00
48041;BME280;33815;48.386;11.738;2023-03-26T04:50:43;95883.22;;;2.51;100.00
48041;BME280;33815;48.386;11.738;2023-03-26T04:53:15;95852.50;;;2.38;100.00
48041;BME280;33815;48.386;11.738;2023-03-26T04:55:54;95882.75;;;2.57;100.00
48041;BME280;33815;48.386;11.738;2023-03-26T04:58:21;95880.41;;;2.54;100.00
48041;BME280;33815;48.386;11.738;2023-03-26T05:00:54;95883.69;;;2.56;100.00
48041;BME280;33815;48.386;11.738;2023-03-26T05:03:19;95871.66;;;2.57;100.00
48041;BME280;33815;48.386;11.738;2023-03-26T05:05:45;95871.41;;;2.60;100.00
48041;BME280;33815;48.386;11.738;2023-03-26T05:08:10;95866.84;;;2.64;100.00
48041;BME280;33815;48.386;11.738;2023-03-26T05:10:35;95852.22;;;2.64;100.00
48041;BME280;33815;48.386;11.738;2023-03-26T05:13:01;95852.09;;;2.66;100.00
48041;BME280;33815;48.386;11.738;2023-03-26T05:15:26;95854.31;;;2.70;100.00
48041;BME280;33815;48.386;11.738;2023-03-26T05:17:51;95844.84;;;2.71;100.00
48041;BME280;33815;48.386;11.738;2023-03-26T05:20:22;95841.19;;;2.73;100.00
48041;BME280;33815;48.386;11.738;2023-03-26T05:22:48;95845.16;;;2.78;100.00
48041;BME280;33815;48.386;11.738;2023-03-26T05:25:15;95847.53;;;2.81;100.00
48041;BME280;33815;48.386;11.738;2023-03-26T05:27:41;95845.38;;;2.86;100.00
48041;BME280;33815;48.386;11.738;2023-03-26T05:30:07;95848.56;;;2.89;100.00
48041;BME280;33815;48.386;11.738;2023-03-26T05:32:33;95842.56;;;3.00;100.00
48041;BME280;33815;48.386;11.738;2023-03-26T05:34:58;95809.81;;;2.91;100.00
48041;BME280;33815;48.386;11.738;2023-03-26T05:37:26;95829.66;;;3.12;100.00
48041;BME280;33815;48.386;11.738;2023-03-26T05:39:55;95825.06;;;3.15;100.00
48041;BME280;33815;48.386;11.738;2023-03-26T05:42:20;95819.06;;;3.26;100.00
48041;BME280;33815;48.386;11.738;2023-03-26T05:44:46;95794.16;;;3.15;100.00
48041;BME280;33815;48.386;11.738;2023-03-26T05:47:11;95808.69;;;3.37;100.00
48041;BME280;33815;48.386;11.738;2023-03-26T05:49:36;95808.53;;;3.50;100.00
48041;BME280;33815;48.386;11.738;2023-03-26T05:52:01;95805.31;;;3.58;100.00
48041;BME280;33815;48.386;11.738;2023-03-26T05:54:27;95797.78;;;3.66;100.00
48041;BME280;33815;48.386;11.738;2023-03-26T05:56:52;95765.44;;;3.52;100.00
48041;BME280;33815;48.386;11.738;2023-03-26T05:59:17;95784.97;;;3.76;100.00
48041;BME280;33815;48.386;11.738;2023-03-26T06:01:43;95779.81;;;3.76;100.00
48041;BME280;33815;48.386;11.738;2023-03-26T06:04:11;95786.88;;;3.84;100.00
48041;BME280;33815;48.386;11.738;2023-03-26T06:06:36;95775.09;;;3.91;100.00
48041;BME280;33815;48.386;11.738;2023-03-26T06:09:01;95780.44;;;3.99;100.00
48041;BME280;33815;48.386;11.738;2023-03-26T06:11:28;95775.59;;;4.06;100.00
48041;BME280;33815;48.386;11.738;2023-03-26T06:13:54;95769.50;;;4.07;100.00
48041;BME280;33815;48.386;11.738;2023-03-26T06:16:19;95770.59;;;4.14;100.00
48041;BME280;33815;48.386;11.738;2023-03-26T06:18:45;95767.88;;;4.16;100.00
48041;BME280;33815;48.386;11.738;2023-03-26T06:21:10;95759.31;;;4.15;100.00
48041;BME280;33815;48.386;11.738;2023-03-26T06:23:35;95760.16;;;4.16;100.00
48041;BME280;33815;48.386;11.738;2023-03-26T06:26:00;95754.22;;;4.35;100.00
48041;BME280;33815;48.386;11.738;2023-03-26T06:28:26;95752.06;;;4.40;100.00
48041;BME280;33815;48.386;11.738;2023-03-26T06:30:51;95751.16;;;4.51;100.00
48041;BME280;33815;48.386;11.738;2023-03-26T06:33:16;95744.34;;;4.50;100.00
48041;BME280;33815;48.386;11.738;2023-03-26T06:35:43;95748.84;;;4.57;100.00
48041;BME280;33815;48.386;11.738;2023-03-26T06:38:09;95741.13;;;4.67;100.00
48041;BME280;33815;48.386;11.738;2023-03-26T06:40:35;95713.66;;;4.56;100.00
48041;BME280;33815;48.386;11.738;2023-03-26T06:43:00;95743.16;;;4.83;100.00
48041;BME280;33815;48.386;11.738;2023-03-26T06:45:27;95735.16;;;4.96;100.00
48041;BME280;33815;48.386;11.738;2023-03-26T06:47:52;95734.22;;;5.07;100.00
48041;BME280;33815;48.386;11.738;2023-03-26T06:50:17;95733.25;;;5.08;100.00
48041;BME280;33815;48.386;11.738;2023-03-26T06:52:43;95735.69;;;5.19;100.00
48041;BME280;33815;48.386;11.738;2023-03-26T06:55:08;95733.09;;;5.29;100.00
48041;BME280;33815;48.386;11.738;2023-03-26T06:57:35;95721.13;;;5.38;100.00
48041;BME280;33815;48.386;11.738;2023-03-26T07:00:00;95719.00;;;5.61;100.00
48041;BME280;33815;48.386;11.738;2023-03-26T07:02:26;95717.06;;;5.73;100.00
48041;BME280;33815;48.386;11.738;2023-03-26T07:04:51;95716.09;;;5.83;100.00
48041;BME280;33815;48.386;11.738;2023-03-26T07:07:17;95714.41;;;5.92;100.00
48041;BME280;33815;48.386;11.738;2023-03-26T07:09:45;95712.47;;;6.04;100.00
48041;BME280;33815;48.386;11.738;2023-03-26T07:12:12;95700.19;;;6.16;100.00
48041;BME280;33815;48.386;11.738;2023-03-26T07:14:37;95703.75;;;6.33;100.00
48041;BME280;33815;48.386;11.738;2023-03-26T07:17:03;95696.50;;;6.37;100.00
48041;BME280;33815;48.386;11.738;2023-03-26T07:19:28;95696.38;;;6.56;100.00
48041;BME280;33815;48.386;11.738;2023-03-26T07:21:54;95689.94;;;6.60;100.00
48041;BME280;33815;48.386;11.738;2023-03-26T07:24:19;95683.97;;;6.78;100.00
48041;BME280;33815;48.386;11.738;2023-03-26T07:26:54;95684.25;;;6.93;100.00
48041;BME280;33815;48.386;11.738;2023-03-26T07:32:54;95675.81;;;7.09;100.00
48041;BME280;33815;48.386;11.738;2023-03-26T07:34:58;95667.88;;;7.10;100.00
48041;BME280;33815;48.386;11.738;2023-03-26T07:37:37;95659.31;;;7.18;100.00
48041;BME280;33815;48.386;11.738;2023-03-26T07:45:40;95631.31;;;7.82;100.00
48041;BME280;33815;48.386;11.738;2023-03-26T07:48:14;95646.75;;;7.92;100.00
48041;BME280;33815;48.386;11.738;2023-03-26T07:50:41;95647.13;;;8.05;99.76
48041;BME280;33815;48.386;11.738;2023-03-26T07:53:06;95639.00;;;8.00;100.00
48041;BME280;33815;48.386;11.738;2023-03-26T07:55:32;95642.44;;;8.09;98.82
48041;BME280;33815;48.386;11.738;2023-03-26T07:58:07;95636.13;;;8.12;99.08
48041;BME280;33815;48.386;11.738;2023-03-26T08:00:45;95634.19;;;8.14;98.85
48041;BME280;33815;48.386;11.738;2023-03-26T08:03:21;95619.50;;;7.88;100.00
48041;BME280;33815;48.386;11.738;2023-03-26T08:06:14;95615.00;;;7.98;100.00
48041;BME280;33815;48.386;11.738;2023-03-26T08:08:52;95596.25;;;7.70;100.00
48041;BME280;33815;48.386;11.738;2023-03-26T08:11:46;95591.38;;;7.67;100.00
48041;BME280;33815;48.386;11.738;2023-03-26T08:14:30;95583.69;;;7.49;100.00
48041;BME280;33815;48.386;11.738;2023-03-26T08:17:16;95570.84;;;7.39;100.00
48041;BME280;33815;48.386;11.738;2023-03-26T08:22:48;95571.47;;;7.07;100.00
48041;BME280;33815;48.386;11.738;2023-03-26T08:25:33;95569.19;;;7.03;100.00
48041;BME280;33815;48.386;11.738;2023-03-26T08:30:51;95566.56;;;7.22;100.00
48041;BME280;33815;48.386;11.738;2023-03-26T08:33:19;95556.78;;;7.07;100.00
48041;BME280;33815;48.386;11.738;2023-03-26T08:35:46;95527.84;;;7.20;100.00
48041;BME280;33815;48.386;11.738;2023-03-26T08:38:14;95543.28;;;7.30;100.00
48041;BME280;33815;48.386;11.738;2023-03-26T08:46:38;95540.13;;;7.18;100.00
48041;BME280;33815;48.386;11.738;2023-03-26T08:58:13;95531.16;;;7.38;97.87
48041;BME280;33815;48.386;11.738;2023-03-26T09:01:17;95528.88;;;7.35;98.68
48041;BME280;33815;48.386;11.738;2023-03-26T09:09:18;95517.31;;;7.22;97.57
48041;BME280;33815;48.386;11.738;2023-03-26T09:11:56;95506.44;;;7.18;97.74
48041;BME280;33815;48.386;11.738;2023-03-26T09:17:30;95517.66;;;6.92;100.00
48041;BME280;33815;48.386;11.738;2023-03-26T09:20:37;95526.97;;;6.77;100.00
48041;BME280;33815;48.386;11.738;2023-03-26T09:26:28;95520.94;;;6.50;100.00
48041;BME280;33815;48.386;11.738;2023-03-26T09:32:02;95534.31;;;6.19;100.00
48041;BME280;33815;48.386;11.738;2023-03-26T09:34:43;95530.91;;;6.00;100.00
48041;BME280;33815;48.386;11.738;2023-03-26T09:37:24;95520.16;;;5.95;100.00
48041;BME280;33815;48.386;11.738;2023-03-26T09:40:16;95462.53;;;5.85;100.00
48041;BME280;33815;48.386;11.738;2023-03-26T09:42:59;95511.97;;;6.18;100.00
48041;BME280;33815;48.386;11.738;2023-03-26T09:45:46;95507.56;;;6.10;100.00
48041;BME280;33815;48.386;11.738;2023-03-26T09:51:11;95501.47;;;6.02;100.00
48041;BME280;33815;48.386;11.738;2023-03-26T09:53:52;95497.28;;;6.00;100.00
48041;BME280;33815;48.386;11.738;2023-03-26T09:56:45;95495.94;;;5.96;100.00
48041;BME280;33815;48.386;11.738;2023-03-26T10:02:16;95490.91;;;5.95;100.00
48041;BME280;33815;48.386;11.738;2023-03-26T10:05:03;95484.84;;;6.04;100.00
48041;BME280;33815;48.386;11.738;2023-03-26T10:16:11;95474.94;;;6.44;100.00
48041;BME280;33815;48.386;11.738;2023-03-26T10:19:27;95476.94;;;6.50;100.00
48041;BME280;33815;48.386;11.738;2023-03-26T10:24:52;95479.91;;;6.55;100.00
48041;BME280;33815;48.386;11.738;2023-03-26T10:27:36;95464.50;;;6.27;100.00
48041;BME280;33815;48.386;11.738;2023-03-26T10:32:52;95447.84;;;6.56;100.00
48041;BME280;33815;48.386;11.738;2023-03-26T10:35:27;95458.22;;;6.56;100.00
48041;BME280;33815;48.386;11.738;2023-03-26T10:40:53;95463.09;;;6.59;100.00
48041;BME280;33815;48.386;11.738;2023-03-26T10:52:03;95456.03;;;7.80;100.00
48041;BME280;33815;48.386;11.738;2023-03-26T10:54:50;95453.81;;;8.01;100.00
48041;BME280;33815;48.386;11.738;2023-03-26T10:57:39;95447.97;;;7.83;100.00
48041;BME280;33815;48.386;11.738;2023-03-26T11:00:17;95455.41;;;7.86;100.00
48041;BME280;33815;48.386;11.738;2023-03-26T11:05:57;95458.63;;;7.55;100.00
48041;BME280;33815;48.386;11.738;2023-03-26T11:11:28;95444.63;;;7.31;100.00
48041;BME280;33815;48.386;11.738;2023-03-26T11:14:01;95452.97;;;7.09;100.00
48041;BME280;33815;48.386;11.738;2023-03-26T11:17:07;95437.16;;;6.85;100.00
48041;BME280;33815;48.386;11.738;2023-03-26T11:19:48;95439.91;;;6.84;100.00
48041;BME280;33815;48.386;11.738;2023-03-26T11:22:27;95443.66;;;6.90;100.00
48041;BME280;33815;48.386;11.738;2023-03-26T11:25:23;95421.00;;;6.92;100.00
48041;BME280;33815;48.386;11.738;2023-03-26T11:28:13;95432.63;;;6.79;100.00
48041;BME280;33815;48.386;11.738;2023-03-26T11:31:12;95444.41;;;6.74;100.00
48041;BME280;33815;48.386;11.738;2023-03-26T11:33:46;95418.19;;;6.77;100.00
48041;BME280;33815;48.386;11.738;2023-03-26T11:36:15;95435.72;;;6.91;100.00
48041;BME280;33815;48.386;11.738;2023-03-26T11:38:44;95439.94;;;6.92;100.00
48041;BME280;33815;48.386;11.738;2023-03-26T11:41:19;95437.69;;;6.89;100.00
48041;BME280;33815;48.386;11.738;2023-03-26T11:43:49;95444.16;;;6.93;100.00
48041;BME280;33815;48.386;11.738;2023-03-26T11:46:18;95444.31;;;6.92;100.00
48041;BME280;33815;48.386;11.738;2023-03-26T11:48:49;95439.38;;;7.15;100.00
48041;BME280;33815;48.386;11.738;2023-03-26T11:53:43;95414.22;;;7.66;100.00
48041;BME280;33815;48.386;11.738;2023-03-26T11:56:32;95415.84;;;7.84;100.00
48041;BME280;33815;48.386;11.738;2023-03-26T11:59:11;95417.78;;;7.74;100.00
48041;BME280;33815;48.386;11.738;2023-03-26T12:02:16;95411.78;;;7.98;100.00
48041;BME280;33815;48.386;11.738;2023-03-26T12:04:45;95395.88;;;8.09;100.00
48041;BME280;33815;48.386;11.738;2023-03-26T12:07:28;95415.34;;;8.21;100.00
48041;BME280;33815;48.386;11.738;2023-03-26T12:10:05;95394.13;;;8.18;100.00
48041;BME280;33815;48.386;11.738;2023-03-26T12:12:35;95378.31;;;8.52;100.00
48041;BME280;33815;48.386;11.738;2023-03-26T12:15:03;95383.72;;;8.82;100.00
48041;BME280;33815;48.386;11.738;2023-03-26T12:17:36;95382.38;;;8.95;100.00
48041;BME280;33815;48.386;11.738;2023-03-26T12:23:01;95385.81;;;9.73;100.00
48041;BME280;33815;48.386;11.738;2023-03-26T12:25:31;95392.28;;;10.53;100.00
48041;BME280;33815;48.386;11.738;2023-03-26T12:27:58;95366.16;;;10.76;100.00
48041;BME280;33815;48.386;11.738;2023-03-26T12:30:32;95357.50;;;10.91;97.11
48041;BME280;33815;48.386;11.738;2023-03-26T12:33:04;95357.34;;;10.77;94.51
48041;BME280;33815;48.386;11.738;2023-03-26T12:35:32;95356.38;;;10.63;95.40
48041;BME280;33815;48.386;11.738;2023-03-26T12:40:46;95349.28;;;10.42;91.29
48041;BME280;33815;48.386;11.738;2023-03-26T12:43:38;95353.00;;;10.25;92.63
48041;BME280;33815;48.386;11.738;2023-03-26T12:48:53;95346.41;;;10.14;90.73
48041;BME280;33815;48.386;11.738;2023-03-26T13:02:25;95345.28;;;9.78;91.66
48041;BME280;33815;48.386;11.738;2023-03-26T13:05:15;95332.59;;;9.60;92.89
48041;BME280;33815;48.386;11.738;2023-03-26T13:07:56;95326.44;;;9.38;92.69
48041;BME280;33815;48.386;11.738;2023-03-26T13:10:34;95306.88;;;9.42;94.63
48041;BME280;33815;48.386;11.738;2023-03-26T13:15:51;95394.88;;;8.51;100.00
48041;BME280;33815;48.386;11.738;2023-03-26T13:21:01;95395.75;;;6.51;100.00
48041;BME280;33815;48.386;11.738;2023-03-26T13:24:05;95384.41;;;6.52;100.00
48041;BME280;33815;48.386;11.738;2023-03-26T13:26:59;95354.78;;;6.46;100.00
48041;BME280;33815;48.386;11.738;2023-03-26T13:32:11;95342.50;;;6.48;100.00
48041;BME280;33815;48.386;11.738;2023-03-26T13:40:09;95342.91;;;6.27;100.00
48041;BME280;33815;48.386;11.738;2023-03-26T13:43:18;95335.41;;;6.16;100.00
48041;BME280;33815;48.386;11.738;2023-03-26T13:46:06;95320.25;;;6.29;100.00
48041;BME280;33815;48.386;11.738;2023-03-26T13:49:03;95323.03;;;6.36;100.00
48041;BME280;33815;48.386;11.738;2023-03-26T13:51:42;95323.56;;;6.40;100.00
48041;BME280;33815;48.386;11.738;2023-03-26T13:54:40;95318.13;;;6.59;100.00
48041;BME280;33815;48.386;11.738;2023-03-26T14:00:09;95278.41;;;7.01;100.00
48041;BME280;33815;48.386;11.738;2023-03-26T14:02:40;95293.31;;;7.24;100.00
48041;BME280;33815;48.386;11.738;2023-03-26T14:05:20;95295.59;;;7.35;100.00
48041;BME280;33815;48.386;11.738;2023-03-26T14:08:01;95311.78;;;7.37;100.00
48041;BME280;33815;48.386;11.738;2023-03-26T14:10:31;95326.34;;;7.22;100.00
48041;BME280;33815;48.386;11.738;2023-03-26T14:13:05;95284.06;;;6.38;100.00
48041;BME280;33815;48.386;11.738;2023-03-26T14:15:40;95327.44;;;6.09;100.00
48041;BME280;33815;48.386;11.738;2023-03-26T14:18:23;95308.81;;;5.88;100.00
48041;BME280;33815;48.386;11.738;2023-03-26T14:21:13;95271.81;;;5.61;100.00
48041;BME280;33815;48.386;11.738;2023-03-26T14:26:45;95291.34;;;5.55;100.00
48041;BME280;33815;48.386;11.738;2023-03-26T14:29:27;95274.25;;;5.62;100.00
48041;BME280;33815;48.386;11.738;2023-03-26T14:34:44;95268.25;;;6.06;100.00
48041;BME280;33815;48.386;11.738;2023-03-26T14:37:44;95258.75;;;6.15;100.00
48041;BME280;33815;48.386;11.738;2023-03-26T14:42:57;95247.31;;;6.26;100.00
48041;BME280;33815;48.386;11.738;2023-03-26T14:45:40;95246.38;;;6.43;100.00
48041;BME280;33815;48.386;11.738;2023-03-26T14:54:07;95244.66;;;6.60;100.00
48041;BME280;33815;48.386;11.738;2023-03-26T14:56:44;95231.91;;;6.75;100.00
48041;BME280;33815;48.386;11.738;2023-03-26T15:08:29;95232.25;;;6.97;100.00
48041;BME280;33815;48.386;11.738;2023-03-26T15:11:16;95242.78;;;7.12;100.00
48041;BME280;33815;48.386;11.738;2023-03-26T15:16:54;95246.34;;;6.86;100.00
48041;BME280;33815;48.386;11.738;2023-03-26T15:19:54;95245.69;;;7.00;100.00
48041;BME280;33815;48.386;11.738;2023-03-26T15:25:30;95247.78;;;7.05;100.00
48041;BME280;33815;48.386;11.738;2023-03-26T15:28:16;95244.09;;;7.16;100.00
48041;BME280;33815;48.386;11.738;2023-03-26T15:31:04;95217.53;;;6.97;100.00
48041;BME280;33815;48.386;11.738;2023-03-26T15:33:47;95232.91;;;7.07;100.00
48041;BME280;33815;48.386;11.738;2023-03-26T15:36:27;95222.06;;;7.28;100.00
48041;BME280;33815;48.386;11.738;2023-03-26T15:42:30;95229.16;;;7.10;100.00
48041;BME280;33815;48.386;11.738;2023-03-26T15:51:14;95223.50;;;6.98;100.00
48041;BME280;33815;48.386;11.738;2023-03-26T15:53:59;95231.09;;;6.83;100.00
48041;BME280;33815;48.386;11.738;2023-03-26T15:56:56;95227.38;;;6.94;100.00
48041;BME280;33815;48.386;11.738;2023-03-26T15:59:47;95228.22;;;6.86;100.00
48041;BME280;33815;48.386;11.738;2023-03-26T16:02:45;95227.06;;;6.72;100.00
48041;BME280;33815;48.386;11.738;2023-03-26T16:10:36;95215.56;;;6.66;100.00